sensor_id;sensor_type;location;lat;lon;timestamp;P1;durP1;ratioP1;P2;durP2;ratioP2
69246;SDS011;56358;56.328;43.992;2024-02-28T00:01:55;4.38;;;1.27;;
69246;SDS011;56358;56.328;43.992;2024-02-28T00:03:56;5.38;;;1.73;;
69246;SDS011;56358;56.328;43.992;2024-02-28T00:05:56;3.20;;;1.20;;
69246;SDS011;56358;56.328;43.992;2024-02-28T00:07:57;2.60;;;1.20;;
69246;SDS011;56358;56.328;43.992;2024-02-28T00:09:58;2.05;;;1.27;;
69246;SDS011;56358;56.328;43.992;2024-02-28T00:11:59;5.32;;;1.13;;
69246;SDS011;56358;56.328;43.992;2024-02-28T00:13:59;4.38;;;1.48;;
69246;SDS011;56358;56.328;43.992;2024-02-28T00:16:00;1.98;;;1.02;;
69246;SDS011;56358;56.328;43.992;2024-02-28T00:18:01;5.78;;;1.80;;
69246;SDS011;56358;56.328;43.992;2024-02-28T00:20:03;5.63;;;1.63;;
69246;SDS011;56358;56.328;43.992;2024-02-28T00:22:05;4.20;;;1.50;;
69246;SDS011;56358;56.328;43.992;2024-02-28T00:24:09;2.42;;;1.00;;
69246;SDS011;56358;56.328;43.992;2024-02-28T00:26:11;3.80;;;1.10;;
69246;SDS011;56358;56.328;43.992;2024-02-28T00:28:12;3.35;;;1.50;;
69246;SDS011;56358;56.328;43.992;2024-02-28T00:30:13;2.38;;;1.23;;
69246;SDS011;56358;56.328;43.992;2024-02-28T00:32:13;4.78;;;1.40;;
69246;SDS011;56358;56.328;43.992;2024-02-28T00:34:14;4.10;;;1.27;;
69246;SDS011;56358;56.328;43.992;2024-02-28T00:36:15;3.00;;;1.55;;
69246;SDS011;56358;56.328;43.992;2024-02-28T00:38:17;1.23;;;0.93;;
69246;SDS011;56358;56.328;43.992;2024-02-28T00:40:17;3.45;;;1.20;;
69246;SDS011;56358;56.328;43.992;2024-02-28T00:42:18;3.67;;;1.30;;
69246;SDS011;56358;56.328;43.992;2024-02-28T00:44:19;3.63;;;1.27;;
69246;SDS011;56358;56.328;43.992;2024-02-28T00:46:20;1.98;;;1.15;;
69246;SDS011;56358;56.328;43.992;2024-02-28T00:48:20;3.15;;;1.02;;
69246;SDS011;56358;56.328;43.992;2024-02-28T00:50:22;4.43;;;1.33;;
69246;SDS011;56358;56.328;43.992;2024-02-28T00:52:23;3.72;;;1.13;;
69246;SDS011;56358;56.328;43.992;2024-02-28T00:54:25;3.53;;;1.00;;
69246;SDS011;56358;56.328;43.992;2024-02-28T00:56:26;3.90;;;1.33;;
69246;SDS011;56358;56.328;43.992;2024-02-28T00:58:27;1.50;;;0.90;;
69246;SDS011;56358;56.328;43.992;2024-02-28T01:00:30;3.97;;;1.17;;
69246;SDS011;56358;56.328;43.992;2024-02-28T01:02:31;1.73;;;0.85;;
69246;SDS011;56358;56.328;43.992;2024-02-28T01:04:32;1.65;;;0.90;;
69246;SDS011;56358;56.328;43.992;2024-02-28T01:06:33;2.17;;;1.10;;
69246;SDS011;56358;56.328;43.992;2024-02-28T01:08:34;2.17;;;1.30;;
69246;SDS011;56358;56.328;43.992;2024-02-28T01:10:34;3.53;;;1.45;;
69246;SDS011;56358;56.328;43.992;2024-02-28T01:12:35;4.47;;;1.65;;
69246;SDS011;56358;56.328;43.992;2024-02-28T01:14:36;4.85;;;1.35;;
69246;SDS011;56358;56.328;43.992;2024-02-28T01:16:36;3.25;;;1.25;;
69246;SDS011;56358;56.328;43.992;2024-02-28T01:18:38;2.83;;;1.60;;
69246;SDS011;56358;56.328;43.992;2024-02-28T01:20:39;2.45;;;1.00;;
69246;SDS011;56358;56.328;43.992;2024-02-28T01:22:39;2.55;;;1.17;;
69246;SDS011;56358;56.328;43.992;2024-02-28T01:24:40;3.00;;;1.35;;
69246;SDS011;56358;56.328;43.992;2024-02-28T01:26:41;2.88;;;1.30;;
69246;SDS011;56358;56.328;43.992;2024-02-28T01:28:41;2.83;;;1.35;;
69246;SDS011;56358;56.328;43.992;2024-02-28T01:30:43;2.45;;;1.13;;
69246;SDS011;56358;56.328;43.992;2024-02-28T01:32:44;5.45;;;1.50;;
69246;SDS011;56358;56.328;43.992;2024-02-28T01:34:44;4.47;;;1.67;;
69246;SDS011;56358;56.328;43.992;2024-02-28T01:36:46;3.83;;;1.40;;
69246;SDS011;56358;56.328;43.992;2024-02-28T01:38:47;6.70;;;1.52;;
69246;SDS011;56358;56.328;43.992;2024-02-28T01:40:47;5.00;;;1.20;;
69246;SDS011;56358;56.328;43.992;2024-02-28T01:42:48;4.43;;;1.52;;
69246;SDS011;56358;56.328;43.992;2024-02-28T01:44:49;5.13;;;1.67;;
69246;SDS011;56358;56.328;43.992;2024-02-28T01:46:50;5.97;;;1.15;;
69246;SDS011;56358;56.328;43.992;2024-02-28T01:48:52;3.13;;;1.20;;
69246;SDS011;56358;56.328;43.992;2024-02-28T01:50:54;4.20;;;1.45;;
69246;SDS011;56358;56.328;43.992;2024-02-28T01:52:55;3.45;;;1.15;;
69246;SDS011;56358;56.328;43.992;2024-02-28T01:54:56;3.45;;;1.33;;
69246;SDS011;56358;56.328;43.992;2024-02-28T01:56:56;6.70;;;1.38;;
69246;SDS011;56358;56.328;43.992;2024-02-28T01:58:58;3.60;;;1.05;;
69246;SDS011;56358;56.328;43.992;2024-02-28T02:01:01;4.20;;;1.30;;
69246;SDS011;56358;56.328;43.992;2024-02-28T02:05:04;4.82;;;1.63;;
69246;SDS011;56358;56.328;43.992;2024-02-28T02:07:05;1.55;;;0.90;;
69246;SDS011;56358;56.328;43.992;2024-02-28T02:09:07;2.40;;;1.10;;
69246;SDS011;56358;56.328;43.992;2024-02-28T02:11:08;2.92;;;1.05;;
69246;SDS011;56358;56.328;43.992;2024-02-28T02:13:09;5.00;;;1.02;;
69246;SDS011;56358;56.328;43.992;2024-02-28T02:15:09;2.55;;;0.98;;
69246;SDS011;56358;56.328;43.992;2024-02-28T02:17:10;2.83;;;1.23;;
69246;SDS011;56358;56.328;43.992;2024-02-28T02:19:11;2.95;;;1.42;;
69246;SDS011;56358;56.328;43.992;2024-02-28T02:21:15;2.47;;;0.80;;
69246;SDS011;56358;56.328;43.992;2024-02-28T02:23:18;1.45;;;1.20;;
69246;SDS011;56358;56.328;43.992;2024-02-28T02:25:19;4.50;;;1.00;;
69246;SDS011;56358;56.328;43.992;2024-02-28T02:27:20;2.05;;;1.05;;
69246;SDS011;56358;56.328;43.992;2024-02-28T02:29:21;1.10;;;0.80;;
69246;SDS011;56358;56.328;43.992;2024-02-28T02:31:21;3.20;;;1.10;;
69246;SDS011;56358;56.328;43.992;2024-02-28T02:33:22;1.83;;;0.90;;
69246;SDS011;56358;56.328;43.992;2024-02-28T02:35:23;2.42;;;1.35;;
69246;SDS011;56358;56.328;43.992;2024-02-28T02:37:23;3.05;;;1.10;;
69246;SDS011;56358;56.328;43.992;2024-02-28T02:39:24;1.73;;;1.10;;
69246;SDS011;56358;56.328;43.992;2024-02-28T02:41:25;2.05;;;0.90;;
69246;SDS011;56358;56.328;43.992;2024-02-28T02:43:26;2.65;;;1.25;;
69246;SDS011;56358;56.328;43.992;2024-02-28T02:45:26;6.68;;;1.70;;
69246;SDS011;56358;56.328;43.992;2024-02-28T02:47:27;3.33;;;1.13;;
69246;SDS011;56358;56.328;43.992;2024-02-28T02:49:27;2.58;;;0.82;;
69246;SDS011;56358;56.328;43.992;2024-02-28T02:51:28;1.25;;;1.00;;
69246;SDS011;56358;56.328;43.992;2024-02-28T02:53:29;2.03;;;1.00;;
69246;SDS011;56358;56.328;43.992;2024-02-28T02:55:29;2.10;;;1.20;;
69246;SDS011;56358;56.328;43.992;2024-02-28T02:57:31;2.50;;;1.27;;
69246;SDS011;56358;56.328;43.992;2024-02-28T02:59:32;4.13;;;1.42;;
69246;SDS011;56358;56.328;43.992;2024-02-28T03:01:33;2.95;;;1.17;;
69246;SDS011;56358;56.328;43.992;2024-02-28T03:03:34;1.50;;;0.90;;
69246;SDS011;56358;56.328;43.992;2024-02-28T03:05:35;4.70;;;1.63;;
69246;SDS011;56358;56.328;43.992;2024-02-28T03:07:35;1.58;;;1.13;;
69246;SDS011;56358;56.328;43.992;2024-02-28T03:09:36;3.45;;;1.00;;
69246;SDS011;56358;56.328;43.992;2024-02-28T03:11:37;4.35;;;1.10;;
69246;SDS011;56358;56.328;43.992;2024-02-28T03:13:38;1.65;;;0.95;;
69246;SDS011;56358;56.328;43.992;2024-02-28T03:15:39;2.63;;;1.25;;
69246;SDS011;56358;56.328;43.992;2024-02-28T03:17:39;2.00;;;0.65;;
69246;SDS011;56358;56.328;43.992;2024-02-28T03:19:40;1.77;;;0.93;;
69246;SDS011;56358;56.328;43.992;2024-02-28T03:21:41;2.90;;;1.20;;
69246;SDS011;56358;56.328;43.992;2024-02-28T03:23:42;1.00;;;0.80;;
69246;SDS011;56358;56.328;43.992;2024-02-28T03:25:42;1.90;;;0.95;;
69246;SDS011;56358;56.328;43.992;2024-02-28T03:27:43;1.42;;;0.82;;
69246;SDS011;56358;56.328;43.992;2024-02-28T03:29:44;1.40;;;0.98;;
69246;SDS011;56358;56.328;43.992;2024-02-28T03:31:44;1.30;;;0.73;;
69246;SDS011;56358;56.328;43.992;2024-02-28T03:33:45;4.78;;;1.02;;
69246;SDS011;56358;56.328;43.992;2024-02-28T03:35:47;4.28;;;1.35;;
69246;SDS011;56358;56.328;43.992;2024-02-28T03:37:47;1.58;;;0.95;;
69246;SDS011;56358;56.328;43.992;2024-02-28T03:39:48;1.52;;;0.90;;
69246;SDS011;56358;56.328;43.992;2024-02-28T03:41:49;2.75;;;0.98;;
69246;SDS011;56358;56.328;43.992;2024-02-28T03:43:49;2.28;;;0.88;;
69246;SDS011;56358;56.328;43.992;2024-02-28T03:45:50;1.83;;;1.08;;
69246;SDS011;56358;56.328;43.992;2024-02-28T03:47:51;1.90;;;0.90;;
69246;SDS011;56358;56.328;43.992;2024-02-28T03:49:51;2.00;;;1.02;;
69246;SDS011;56358;56.328;43.992;2024-02-28T03:51:52;2.00;;;0.77;;
69246;SDS011;56358;56.328;43.992;2024-02-28T03:53:53;1.35;;;0.73;;
69246;SDS011;56358;56.328;43.992;2024-02-28T03:55:54;0.82;;;0.70;;
69246;SDS011;56358;56.328;43.992;2024-02-28T03:57:55;1.58;;;0.95;;
69246;SDS011;56358;56.328;43.992;2024-02-28T03:59:55;4.10;;;1.30;;
69246;SDS011;56358;56.328;43.992;2024-02-28T04:01:56;1.50;;;0.80;;
69246;SDS011;56358;56.328;43.992;2024-02-28T04:03:57;2.30;;;1.10;;
69246;SDS011;56358;56.328;43.992;2024-02-28T04:05:57;5.18;;;0.80;;
69246;SDS011;56358;56.328;43.992;2024-02-28T04:07:59;2.35;;;1.05;;
69246;SDS011;56358;56.328;43.992;2024-02-28T04:09:59;4.13;;;1.10;;
69246;SDS011;56358;56.328;43.992;2024-02-28T04:12:00;3.67;;;1.20;;
69246;SDS011;56358;56.328;43.992;2024-02-28T04:14:01;3.97;;;1.20;;
69246;SDS011;56358;56.328;43.992;2024-02-28T04:16:02;6.80;;;1.40;;
69246;SDS011;56358;56.328;43.992;2024-02-28T04:18:03;1.10;;;0.90;;
69246;SDS011;56358;56.328;43.992;2024-02-28T04:20:08;4.00;;;1.20;;
69246;SDS011;56358;56.328;43.992;2024-02-28T04:22:13;2.58;;;0.90;;
69246;SDS011;56358;56.328;43.992;2024-02-28T04:24:14;2.53;;;1.17;;
69246;SDS011;56358;56.328;43.992;2024-02-28T04:26:14;1.52;;;1.00;;
69246;SDS011;56358;56.328;43.992;2024-02-28T04:28:15;2.90;;;1.27;;
69246;SDS011;56358;56.328;43.992;2024-02-28T04:30:16;2.40;;;0.90;;
69246;SDS011;56358;56.328;43.992;2024-02-28T04:32:16;2.40;;;1.25;;
69246;SDS011;56358;56.328;43.992;2024-02-28T04:34:17;2.90;;;1.15;;
69246;SDS011;56358;56.328;43.992;2024-02-28T04:36:18;3.53;;;0.70;;
69246;SDS011;56358;56.328;43.992;2024-02-28T04:38:19;2.42;;;1.00;;
69246;SDS011;56358;56.328;43.992;2024-02-28T04:40:20;3.13;;;1.10;;
69246;SDS011;56358;56.328;43.992;2024-02-28T04:42:20;2.97;;;1.40;;
69246;SDS011;56358;56.328;43.992;2024-02-28T04:44:21;2.63;;;1.20;;
69246;SDS011;56358;56.328;43.992;2024-02-28T04:46:22;2.13;;;0.90;;
69246;SDS011;56358;56.328;43.992;2024-02-28T04:48:22;2.88;;;1.10;;
69246;SDS011;56358;56.328;43.992;2024-02-28T04:50:23;2.00;;;1.15;;
69246;SDS011;56358;56.328;43.992;2024-02-28T04:52:24;4.28;;;1.42;;
69246;SDS011;56358;56.328;43.992;2024-02-28T04:54:28;2.58;;;1.10;;
69246;SDS011;56358;56.328;43.992;2024-02-28T04:56:28;4.07;;;1.73;;
69246;SDS011;56358;56.328;43.992;2024-02-28T04:58:29;3.33;;;1.52;;
69246;SDS011;56358;56.328;43.992;2024-02-28T05:00:30;3.17;;;1.30;;
69246;SDS011;56358;56.328;43.992;2024-02-28T05:02:31;3.58;;;0.93;;
69246;SDS011;56358;56.328;43.992;2024-02-28T05:04:31;3.58;;;1.45;;
69246;SDS011;56358;56.328;43.992;2024-02-28T05:06:32;3.20;;;1.10;;
69246;SDS011;56358;56.328;43.992;2024-02-28T05:08:33;4.70;;;1.40;;
69246;SDS011;56358;56.328;43.992;2024-02-28T05:10:36;5.68;;;1.48;;
69246;SDS011;56358;56.328;43.992;2024-02-28T05:12:37;2.80;;;1.20;;
69246;SDS011;56358;56.328;43.992;2024-02-28T05:14:38;4.68;;;1.20;;
69246;SDS011;56358;56.328;43.992;2024-02-28T05:16:39;4.15;;;1.20;;
69246;SDS011;56358;56.328;43.992;2024-02-28T05:18:40;3.10;;;1.52;;
69246;SDS011;56358;56.328;43.992;2024-02-28T05:20:41;2.30;;;1.00;;
69246;SDS011;56358;56.328;43.992;2024-02-28T05:22:41;8.73;;;1.30;;
69246;SDS011;56358;56.328;43.992;2024-02-28T05:24:45;4.28;;;1.15;;
69246;SDS011;56358;56.328;43.992;2024-02-28T05:26:46;2.58;;;1.15;;
69246;SDS011;56358;56.328;43.992;2024-02-28T05:28:46;2.17;;;1.10;;
69246;SDS011;56358;56.328;43.992;2024-02-28T05:30:47;1.83;;;1.08;;
69246;SDS011;56358;56.328;43.992;2024-02-28T05:32:48;7.38;;;1.85;;
69246;SDS011;56358;56.328;43.992;2024-02-28T05:34:49;1.73;;;1.00;;
69246;SDS011;56358;56.328;43.992;2024-02-28T05:36:50;6.60;;;2.35;;
69246;SDS011;56358;56.328;43.992;2024-02-28T05:38:51;2.72;;;0.95;;
69246;SDS011;56358;56.328;43.992;2024-02-28T05:40:53;3.17;;;1.02;;
69246;SDS011;56358;56.328;43.992;2024-02-28T05:42:55;2.15;;;0.82;;
69246;SDS011;56358;56.328;43.992;2024-02-28T05:44:55;14.88;;;1.60;;
69246;SDS011;56358;56.328;43.992;2024-02-28T05:46:56;2.75;;;1.50;;
69246;SDS011;56358;56.328;43.992;2024-02-28T05:48:57;1.45;;;1.15;;
69246;SDS011;56358;56.328;43.992;2024-02-28T05:51:00;2.83;;;1.20;;
69246;SDS011;56358;56.328;43.992;2024-02-28T05:55:01;10.95;;;1.45;;
69246;SDS011;56358;56.328;43.992;2024-02-28T05:57:04;1.52;;;1.02;;
69246;SDS011;56358;56.328;43.992;2024-02-28T05:59:05;2.35;;;1.05;;
69246;SDS011;56358;56.328;43.992;2024-02-28T06:01:05;4.00;;;1.63;;
69246;SDS011;56358;56.328;43.992;2024-02-28T06:03:07;3.10;;;1.38;;
69246;SDS011;56358;56.328;43.992;2024-02-28T06:05:08;2.72;;;1.27;;
69246;SDS011;56358;56.328;43.992;2024-02-28T06:07:09;6.18;;;1.45;;
69246;SDS011;56358;56.328;43.992;2024-02-28T06:09:09;2.75;;;1.35;;
69246;SDS011;56358;56.328;43.992;2024-02-28T06:11:10;3.88;;;1.23;;
69246;SDS011;56358;56.328;43.992;2024-02-28T06:13:11;4.93;;;1.65;;
69246;SDS011;56358;56.328;43.992;2024-02-28T06:15:12;6.15;;;1.77;;
69246;SDS011;56358;56.328;43.992;2024-02-28T06:17:13;3.55;;;1.58;;
69246;SDS011;56358;56.328;43.992;2024-02-28T06:19:14;9.30;;;1.77;;
69246;SDS011;56358;56.328;43.992;2024-02-28T06:21:14;3.95;;;1.90;;
69246;SDS011;56358;56.328;43.992;2024-02-28T06:23:15;3.80;;;1.65;;
69246;SDS011;56358;56.328;43.992;2024-02-28T06:25:17;10.05;;;2.97;;
69246;SDS011;56358;56.328;43.992;2024-02-28T06:27:22;7.65;;;2.13;;
69246;SDS011;56358;56.328;43.992;2024-02-28T06:29:23;3.92;;;2.22;;
69246;SDS011;56358;56.328;43.992;2024-02-28T06:31:24;5.93;;;2.25;;
69246;SDS011;56358;56.328;43.992;2024-02-28T06:33:25;3.72;;;1.60;;
69246;SDS011;56358;56.328;43.992;2024-02-28T06:35:26;7.13;;;1.45;;
69246;SDS011;56358;56.328;43.992;2024-02-28T06:37:26;3.42;;;1.67;;
69246;SDS011;56358;56.328;43.992;2024-02-28T06:39:28;5.25;;;1.90;;
69246;SDS011;56358;56.328;43.992;2024-02-28T06:41:29;4.93;;;1.90;;
69246;SDS011;56358;56.328;43.992;2024-02-28T06:43:30;3.83;;;1.75;;
69246;SDS011;56358;56.328;43.992;2024-02-28T06:45:33;7.50;;;2.70;;
69246;SDS011;56358;56.328;43.992;2024-02-28T06:47:34;7.28;;;2.70;;
69246;SDS011;56358;56.328;43.992;2024-02-28T06:49:36;7.53;;;2.13;;
69246;SDS011;56358;56.328;43.992;2024-02-28T06:51:37;4.43;;;1.80;;
69246;SDS011;56358;56.328;43.992;2024-02-28T06:53:38;10.05;;;1.88;;
69246;SDS011;56358;56.328;43.992;2024-02-28T06:55:38;7.57;;;2.20;;
69246;SDS011;56358;56.328;43.992;2024-02-28T06:57:42;5.85;;;2.25;;
69246;SDS011;56358;56.328;43.992;2024-02-28T06:59:43;6.85;;;2.30;;
69246;SDS011;56358;56.328;43.992;2024-02-28T07:01:44;5.57;;;2.40;;
69246;SDS011;56358;56.328;43.992;2024-02-28T07:03:44;4.63;;;1.90;;
69246;SDS011;56358;56.328;43.992;2024-02-28T07:05:45;4.00;;;1.65;;
69246;SDS011;56358;56.328;43.992;2024-02-28T07:07:46;5.07;;;1.67;;
69246;SDS011;56358;56.328;43.992;2024-02-28T07:09:47;4.50;;;2.08;;
69246;SDS011;56358;56.328;43.992;2024-02-28T07:11:47;4.38;;;2.47;;
69246;SDS011;56358;56.328;43.992;2024-02-28T07:13:48;8.30;;;2.25;;
69246;SDS011;56358;56.328;43.992;2024-02-28T07:15:49;5.63;;;1.73;;
69246;SDS011;56358;56.328;43.992;2024-02-28T07:17:49;3.80;;;1.70;;
69246;SDS011;56358;56.328;43.992;2024-02-28T07:19:50;7.97;;;2.30;;
69246;SDS011;56358;56.328;43.992;2024-02-28T07:21:51;3.75;;;1.75;;
69246;SDS011;56358;56.328;43.992;2024-02-28T07:23:51;3.63;;;1.80;;
69246;SDS011;56358;56.328;43.992;2024-02-28T07:25:52;3.70;;;1.60;;
69246;SDS011;56358;56.328;43.992;2024-02-28T07:27:53;4.43;;;1.67;;
69246;SDS011;56358;56.328;43.992;2024-02-28T07:29:54;3.33;;;1.70;;
69246;SDS011;56358;56.328;43.992;2024-02-28T07:31:54;7.45;;;2.30;;
69246;SDS011;56358;56.328;43.992;2024-02-28T07:33:55;5.03;;;2.10;;
69246;SDS011;56358;56.328;43.992;2024-02-28T07:35:56;7.28;;;2.80;;
69246;SDS011;56358;56.328;43.992;2024-02-28T07:38:01;6.80;;;2.90;;
69246;SDS011;56358;56.328;43.992;2024-02-28T07:40:02;7.50;;;2.83;;
69246;SDS011;56358;56.328;43.992;2024-02-28T07:42:04;6.93;;;2.63;;
69246;SDS011;56358;56.328;43.992;2024-02-28T07:44:05;9.35;;;2.33;;
69246;SDS011;56358;56.328;43.992;2024-02-28T07:46:07;8.55;;;1.98;;
69246;SDS011;56358;56.328;43.992;2024-02-28T07:48:09;7.43;;;2.17;;
69246;SDS011;56358;56.328;43.992;2024-02-28T07:50:10;5.03;;;1.90;;
69246;SDS011;56358;56.328;43.992;2024-02-28T07:52:11;3.97;;;1.63;;
69246;SDS011;56358;56.328;43.992;2024-02-28T07:54:11;4.57;;;1.70;;
69246;SDS011;56358;56.328;43.992;2024-02-28T07:56:15;4.80;;;2.20;;
69246;SDS011;56358;56.328;43.992;2024-02-28T07:58:19;4.25;;;1.58;;
69246;SDS011;56358;56.328;43.992;2024-02-28T08:00:20;5.45;;;1.50;;
69246;SDS011;56358;56.328;43.992;2024-02-28T08:02:21;4.00;;;2.10;;
69246;SDS011;56358;56.328;43.992;2024-02-28T08:04:22;5.90;;;1.80;;
69246;SDS011;56358;56.328;43.992;2024-02-28T08:06:22;4.80;;;2.20;;
69246;SDS011;56358;56.328;43.992;2024-02-28T08:08:24;10.95;;;1.83;;
69246;SDS011;56358;56.328;43.992;2024-02-28T08:10:25;5.25;;;1.92;;
69246;SDS011;56358;56.328;43.992;2024-02-28T08:12:25;1.98;;;1.15;;
69246;SDS011;56358;56.328;43.992;2024-02-28T08:14:26;5.57;;;1.77;;
69246;SDS011;56358;56.328;43.992;2024-02-28T08:16:27;2.22;;;1.48;;
69246;SDS011;56358;56.328;43.992;2024-02-28T08:18:28;5.47;;;1.35;;
69246;SDS011;56358;56.328;43.992;2024-02-28T08:20:29;5.05;;;1.42;;
69246;SDS011;56358;56.328;43.992;2024-02-28T08:22:29;6.80;;;2.25;;
69246;SDS011;56358;56.328;43.992;2024-02-28T08:24:30;3.25;;;1.63;;
69246;SDS011;56358;56.328;43.992;2024-02-28T08:26:31;10.02;;;2.05;;
69246;SDS011;56358;56.328;43.992;2024-02-28T08:28:32;7.53;;;2.15;;
69246;SDS011;56358;56.328;43.992;2024-02-28T08:30:33;2.65;;;1.40;;
69246;SDS011;56358;56.328;43.992;2024-02-28T08:32:34;4.03;;;2.03;;
69246;SDS011;56358;56.328;43.992;2024-02-28T08:34:35;5.18;;;1.40;;
69246;SDS011;56358;56.328;43.992;2024-02-28T08:36:36;5.00;;;2.00;;
69246;SDS011;56358;56.328;43.992;2024-02-28T08:38:37;5.03;;;2.15;;
69246;SDS011;56358;56.328;43.992;2024-02-28T08:40:39;4.95;;;2.00;;
69246;SDS011;56358;56.328;43.992;2024-02-28T08:42:39;6.53;;;2.15;;
69246;SDS011;56358;56.328;43.992;2024-02-28T08:44:41;4.85;;;1.80;;
69246;SDS011;56358;56.328;43.992;2024-02-28T08:46:42;4.22;;;1.65;;
69246;SDS011;56358;56.328;43.992;2024-02-28T08:48:43;8.57;;;3.05;;
69246;SDS011;56358;56.328;43.992;2024-02-28T08:50:44;8.48;;;3.50;;
69246;SDS011;56358;56.328;43.992;2024-02-28T08:52:45;6.00;;;2.78;;
69246;SDS011;56358;56.328;43.992;2024-02-28T08:54:46;8.32;;;3.15;;
69246;SDS011;56358;56.328;43.992;2024-02-28T08:56:47;6.03;;;2.95;;
69246;SDS011;56358;56.328;43.992;2024-02-28T08:58:48;10.55;;;3.28;;
69246;SDS011;56358;56.328;43.992;2024-02-28T09:00:48;10.23;;;4.18;;
69246;SDS011;56358;56.328;43.992;2024-02-28T09:02:49;7.60;;;3.65;;
69246;SDS011;56358;56.328;43.992;2024-02-28T09:04:50;8.88;;;3.85;;
69246;SDS011;56358;56.328;43.992;2024-02-28T09:06:53;9.57;;;3.67;;
69246;SDS011;56358;56.328;43.992;2024-02-28T09:08:53;8.18;;;3.42;;
69246;SDS011;56358;56.328;43.992;2024-02-28T09:10:54;6.70;;;2.70;;
69246;SDS011;56358;56.328;43.992;2024-02-28T09:12:55;11.30;;;2.83;;
69246;SDS011;56358;56.328;43.992;2024-02-28T09:14:56;9.00;;;3.00;;
69246;SDS011;56358;56.328;43.992;2024-02-28T09:16:58;13.70;;;3.03;;
69246;SDS011;56358;56.328;43.992;2024-02-28T09:19:04;6.55;;;3.38;;
69246;SDS011;56358;56.328;43.992;2024-02-28T09:21:07;10.30;;;3.80;;
69246;SDS011;56358;56.328;43.992;2024-02-28T09:23:08;7.95;;;2.85;;
69246;SDS011;56358;56.328;43.992;2024-02-28T09:25:09;5.45;;;2.10;;
69246;SDS011;56358;56.328;43.992;2024-02-28T09:27:10;8.35;;;3.08;;
69246;SDS011;56358;56.328;43.992;2024-02-28T09:29:10;8.35;;;2.65;;
69246;SDS011;56358;56.328;43.992;2024-02-28T09:31:11;8.25;;;2.67;;
69246;SDS011;56358;56.328;43.992;2024-02-28T09:33:12;6.07;;;2.80;;
69246;SDS011;56358;56.328;43.992;2024-02-28T09:35:13;8.07;;;2.92;;
69246;SDS011;56358;56.328;43.992;2024-02-28T09:37:13;5.85;;;2.42;;
69246;SDS011;56358;56.328;43.992;2024-02-28T09:39:14;6.50;;;2.58;;
69246;SDS011;56358;56.328;43.992;2024-02-28T09:41:15;6.90;;;2.55;;
69246;SDS011;56358;56.328;43.992;2024-02-28T09:43:30;8.13;;;2.50;;
69246;SDS011;56358;56.328;43.992;2024-02-28T09:45:32;7.13;;;3.42;;
69246;SDS011;56358;56.328;43.992;2024-02-28T09:47:35;11.73;;;3.42;;
69246;SDS011;56358;56.328;43.992;2024-02-28T09:49:35;6.50;;;2.65;;
69246;SDS011;56358;56.328;43.992;2024-02-28T09:51:39;4.53;;;2.53;;
69246;SDS011;56358;56.328;43.992;2024-02-28T09:53:40;7.22;;;2.97;;
69246;SDS011;56358;56.328;43.992;2024-02-28T09:55:41;4.60;;;2.15;;
69246;SDS011;56358;56.328;43.992;2024-02-28T09:57:41;11.15;;;2.83;;
69246;SDS011;56358;56.328;43.992;2024-02-28T09:59:47;6.72;;;2.60;;
69246;SDS011;56358;56.328;43.992;2024-02-28T10:01:51;7.32;;;2.83;;
69246;SDS011;56358;56.328;43.992;2024-02-28T10:03:56;5.00;;;2.53;;
69246;SDS011;56358;56.328;43.992;2024-02-28T10:07:59;8.75;;;2.78;;
69246;SDS011;56358;56.328;43.992;2024-02-28T10:10:00;8.23;;;2.67;;
69246;SDS011;56358;56.328;43.992;2024-02-28T10:12:02;13.32;;;2.90;;
69246;SDS011;56358;56.328;43.992;2024-02-28T10:14:03;4.72;;;2.33;;
69246;SDS011;56358;56.328;43.992;2024-02-28T10:16:06;5.65;;;2.35;;
69246;SDS011;56358;56.328;43.992;2024-02-28T10:18:07;9.02;;;3.40;;
69246;SDS011;56358;56.328;43.992;2024-02-28T10:20:08;5.72;;;2.58;;
69246;SDS011;56358;56.328;43.992;2024-02-28T10:22:09;7.18;;;3.22;;
69246;SDS011;56358;56.328;43.992;2024-02-28T10:24:11;6.90;;;2.72;;
69246;SDS011;56358;56.328;43.992;2024-02-28T10:26:13;5.78;;;2.25;;
69246;SDS011;56358;56.328;43.992;2024-02-28T10:28:14;12.50;;;2.53;;
69246;SDS011;56358;56.328;43.992;2024-02-28T10:30:15;8.02;;;2.80;;
69246;SDS011;56358;56.328;43.992;2024-02-28T10:32:17;12.50;;;2.97;;
69246;SDS011;56358;56.328;43.992;2024-02-28T10:34:18;12.27;;;2.83;;
69246;SDS011;56358;56.328;43.992;2024-02-28T10:36:19;6.15;;;2.35;;
69246;SDS011;56358;56.328;43.992;2024-02-28T10:38:20;7.95;;;2.83;;
69246;SDS011;56358;56.328;43.992;2024-02-28T10:40:21;11.48;;;2.70;;
69246;SDS011;56358;56.328;43.992;2024-02-28T10:42:23;8.15;;;2.83;;
69246;SDS011;56358;56.328;43.992;2024-02-28T10:44:27;9.32;;;2.90;;
69246;SDS011;56358;56.328;43.992;2024-02-28T10:46:31;11.55;;;2.85;;
69246;SDS011;56358;56.328;43.992;2024-02-28T10:48:31;6.90;;;3.58;;
69246;SDS011;56358;56.328;43.992;2024-02-28T10:50:32;10.20;;;3.30;;
69246;SDS011;56358;56.328;43.992;2024-02-28T10:52:33;10.05;;;2.83;;
69246;SDS011;56358;56.328;43.992;2024-02-28T10:54:39;6.85;;;2.97;;
69246;SDS011;56358;56.328;43.992;2024-02-28T10:56:44;7.47;;;2.80;;
69246;SDS011;56358;56.328;43.992;2024-02-28T10:58:51;10.20;;;3.40;;
69246;SDS011;56358;56.328;43.992;2024-02-28T11:00:53;5.82;;;3.03;;
69246;SDS011;56358;56.328;43.992;2024-02-28T11:02:55;5.35;;;2.20;;
69246;SDS011;56358;56.328;43.992;2024-02-28T11:04:57;7.32;;;2.50;;
69246;SDS011;56358;56.328;43.992;2024-02-28T11:07:00;6.93;;;2.83;;
69246;SDS011;56358;56.328;43.992;2024-02-28T11:09:02;6.13;;;2.38;;
69246;SDS011;56358;56.328;43.992;2024-02-28T11:11:03;4.95;;;2.47;;
69246;SDS011;56358;56.328;43.992;2024-02-28T11:13:05;6.28;;;2.35;;
69246;SDS011;56358;56.328;43.992;2024-02-28T11:15:05;9.25;;;2.97;;
69246;SDS011;56358;56.328;43.992;2024-02-28T11:17:17;7.47;;;2.92;;
69246;SDS011;56358;56.328;43.992;2024-02-28T11:19:28;7.85;;;2.88;;
69246;SDS011;56358;56.328;43.992;2024-02-28T11:21:34;7.32;;;2.75;;
69246;SDS011;56358;56.328;43.992;2024-02-28T11:23:36;5.55;;;2.92;;
69246;SDS011;56358;56.328;43.992;2024-02-28T11:25:37;6.53;;;2.75;;
69246;SDS011;56358;56.328;43.992;2024-02-28T11:27:48;8.07;;;3.10;;
69246;SDS011;56358;56.328;43.992;2024-02-28T11:29:49;7.88;;;3.13;;
69246;SDS011;56358;56.328;43.992;2024-02-28T11:31:50;15.75;;;4.95;;
69246;SDS011;56358;56.328;43.992;2024-02-28T11:33:51;8.88;;;3.15;;
69246;SDS011;56358;56.328;43.992;2024-02-28T11:35:58;8.13;;;3.05;;
69246;SDS011;56358;56.328;43.992;2024-02-28T11:38:00;8.50;;;3.60;;
69246;SDS011;56358;56.328;43.992;2024-02-28T11:40:00;13.35;;;4.43;;
69246;SDS011;56358;56.328;43.992;2024-02-28T11:42:11;8.55;;;4.32;;
69246;SDS011;56358;56.328;43.992;2024-02-28T11:44:16;10.45;;;4.53;;
69246;SDS011;56358;56.328;43.992;2024-02-28T11:46:19;14.60;;;4.68;;
69246;SDS011;56358;56.328;43.992;2024-02-28T11:48:20;10.32;;;4.70;;
69246;SDS011;56358;56.328;43.992;2024-02-28T11:50:21;11.38;;;5.15;;
69246;SDS011;56358;56.328;43.992;2024-02-28T11:52:23;10.88;;;4.68;;
69246;SDS011;56358;56.328;43.992;2024-02-28T11:54:25;11.15;;;3.80;;
69246;SDS011;56358;56.328;43.992;2024-02-28T11:56:26;16.90;;;7.22;;
69246;SDS011;56358;56.328;43.992;2024-02-28T11:58:27;9.15;;;3.80;;
69246;SDS011;56358;56.328;43.992;2024-02-28T12:00:27;9.55;;;3.38;;
69246;SDS011;56358;56.328;43.992;2024-02-28T12:02:28;7.72;;;3.85;;
69246;SDS011;56358;56.328;43.992;2024-02-28T12:04:30;6.93;;;3.40;;
69246;SDS011;56358;56.328;43.992;2024-02-28T12:06:32;8.05;;;3.22;;